createdAt,value
2022-11-30T00:01:30.677Z,100186.22
2022-11-30T00:03:58.198Z,100180.16
2022-11-30T00:06:25.469Z,100176.59
2022-11-30T00:08:55.642Z,100175.72
2022-11-30T00:11:23.685Z,100170.84
2022-11-30T00:13:51.032Z,100174.06
2022-11-30T00:16:18.389Z,100170.66
2022-11-30T00:18:45.887Z,100172.59
2022-11-30T00:21:13.777Z,100177.72
2022-11-30T00:23:41.675Z,100171.66
2022-11-30T00:26:10.908Z,100180.31
2022-11-30T00:28:38.339Z,100175.34
2022-11-30T00:31:06.669Z,100169.94
2022-11-30T00:33:34.934Z,100173.28
2022-11-30T00:36:03.701Z,100175.63
2022-11-30T00:38:34.366Z,100176.53
2022-11-30T00:41:02.152Z,100168.50
2022-11-30T00:43:29.404Z,100171.94
2022-11-30T00:45:57.437Z,100175.44
2022-11-30T00:48:24.975Z,100182.66
2022-11-30T00:50:52.322Z,100178.88
2022-11-30T00:53:19.789Z,100181.72
2022-11-30T00:55:47.671Z,100178.53
2022-11-30T00:58:14.886Z,100172.59
2022-11-30T01:00:42.105Z,100181.91
2022-11-30T01:03:09.822Z,100187.06
2022-11-30T01:05:37.075Z,100177.38
2022-11-30T01:08:05.387Z,100182.13
2022-11-30T01:10:36.041Z,100184.59
2022-11-30T01:13:03.641Z,100184.91
2022-11-30T01:15:30.945Z,100187.75
2022-11-30T01:18:01.372Z,100188.78
2022-11-30T01:20:28.634Z,100186.44
2022-11-30T01:22:55.889Z,100181.25
2022-11-30T01:25:23.450Z,100182.44
2022-11-30T01:27:50.866Z,100181.91
2022-11-30T01:30:18.334Z,100177.66
2022-11-30T01:32:45.814Z,100174.72
2022-11-30T01:35:12.980Z,100176.34
2022-11-30T01:37:40.175Z,100166.94
2022-11-30T01:40:07.899Z,100166.37
2022-11-30T01:42:37.935Z,100164.53
2022-11-30T01:45:05.788Z,100166.47
2022-11-30T01:47:39.293Z,100164.38
2022-11-30T01:50:08.997Z,100159.47
2022-11-30T01:52:37.702Z,100160.44
2022-11-30T01:55:10.910Z,100159.31
2022-11-30T01:57:39.483Z,100167.81
2022-11-30T02:00:08.602Z,100164.38
2022-11-30T02:02:44.126Z,100168.28
2022-11-30T02:05:11.696Z,100166.88
2022-11-30T02:07:39.231Z,100155.91
2022-11-30T02:10:06.818Z,100164.38
2022-11-30T02:12:55.981Z,100165.34
2022-11-30T02:15:23.622Z,100160.56
2022-11-30T02:17:53.760Z,100158.19
2022-11-30T02:20:24.010Z,100159.78
2022-11-30T02:23:03.652Z,100174.69
2022-11-30T02:25:51.119Z,100167.34
2022-11-30T02:28:37.261Z,100162.09
2022-11-30T02:31:04.681Z,100152.19
2022-11-30T02:33:32.209Z,100151.88
2022-11-30T02:35:59.427Z,100156.06
2022-11-30T02:38:27.209Z,100145.13
2022-11-30T02:40:54.959Z,100143.75
2022-11-30T02:43:22.861Z,100137.88
2022-11-30T02:45:53.112Z,100148.84
2022-11-30T02:48:21.533Z,100155.59
2022-11-30T02:50:49.723Z,100155.63
2022-11-30T02:53:17.025Z,100144.53
2022-11-30T02:55:44.547Z,100149.13
2022-11-30T02:58:12.096Z,100145.47
2022-11-30T03:00:39.298Z,100151.28
2022-11-30T03:03:06.836Z,100147.91
2022-11-30T03:05:34.142Z,100145.81
2022-11-30T03:08:01.459Z,100143.22
2022-11-30T03:10:28.983Z,100146.56
2022-11-30T03:12:59.534Z,100143.38
2022-11-30T03:15:26.940Z,100147.28
2022-11-30T03:17:54.403Z,100153.88
2022-11-30T03:20:21.684Z,100148.66
2022-11-30T03:22:48.876Z,100142.50
2022-11-30T03:25:16.323Z,100155.03
2022-11-30T03:27:43.514Z,100155.00
2022-11-30T03:30:10.989Z,100152.63
2022-11-30T03:32:38.494Z,100159.94
2022-11-30T03:35:05.962Z,100157.59
2022-11-30T03:37:33.119Z,100159.97
2022-11-30T03:40:00.516Z,100167.53
2022-11-30T03:42:27.732Z,100164.00
2022-11-30T03:44:55.036Z,100154.38
2022-11-30T03:47:22.534Z,100149.47
2022-11-30T03:49:49.754Z,100159.50
2022-11-30T03:52:16.965Z,100157.81
2022-11-30T03:54:44.612Z,100154.44
2022-11-30T03:57:12.179Z,100160.28
2022-11-30T03:59:39.400Z,100163.44
2022-11-30T04:02:06.878Z,100163.34
2022-11-30T04:04:34.356Z,100165.53
2022-11-30T04:07:01.608Z,100161.03
2022-11-30T04:09:28.825Z,100158.00
2022-11-30T04:11:56.307Z,100160.34
2022-11-30T04:14:23.542Z,100156.38
2022-11-30T04:16:50.769Z,100155.72
2022-11-30T04:19:18.266Z,100161.44
2022-11-30T04:21:45.499Z,100158.44
2022-11-30T04:24:12.724Z,100152.09
2022-11-30T04:26:40.204Z,100152.37
2022-11-30T04:29:07.365Z,100153.88
2022-11-30T04:31:34.660Z,100155.13
2022-11-30T04:34:02.251Z,100152.94
2022-11-30T04:36:29.547Z,100158.09
2022-11-30T04:38:56.788Z,100160.56
2022-11-30T04:41:24.272Z,100155.44
2022-11-30T04:43:51.439Z,100161.31
2022-11-30T04:46:18.826Z,100165.59
2022-11-30T04:48:46.362Z,100163.44
2022-11-30T04:51:13.663Z,100158.75
2022-11-30T04:53:40.885Z,100161.25
2022-11-30T04:56:09.015Z,100154.50
2022-11-30T04:58:36.437Z,100153.16
2022-11-30T05:01:03.600Z,100152.22
2022-11-30T05:03:31.138Z,100157.25
2022-11-30T05:05:58.410Z,100155.63
2022-11-30T05:08:25.603Z,100157.44
2022-11-30T05:10:53.593Z,100169.84
2022-11-30T05:13:21.433Z,100154.63
2022-11-30T05:15:48.776Z,100157.34
2022-11-30T05:18:16.323Z,100162.56
2022-11-30T05:20:47.131Z,100162.87
2022-11-30T05:23:14.413Z,100166.25
2022-11-30T05:25:42.194Z,100170.25
2022-11-30T05:28:09.579Z,100168.31
2022-11-30T05:30:37.890Z,100168.00
2022-11-30T05:33:05.545Z,100165.87
2022-11-30T05:35:33.026Z,100171.34
2022-11-30T05:38:00.229Z,100171.50
2022-11-30T05:40:28.803Z,100175.25
2022-11-30T05:42:56.870Z,100172.94
2022-11-30T05:45:24.308Z,100171.16
2022-11-30T05:47:51.765Z,100168.94
2022-11-30T05:50:19.172Z,100170.62
2022-11-30T05:52:46.394Z,100165.66
2022-11-30T05:55:13.892Z,100167.31
2022-11-30T05:57:41.153Z,100170.22
2022-11-30T06:00:09.186Z,100172.66
2022-11-30T06:02:38.860Z,100170.69
2022-11-30T06:05:06.672Z,100175.84
2022-11-30T06:07:33.919Z,100173.13
2022-11-30T06:10:01.131Z,100178.69
2022-11-30T06:12:28.749Z,100186.78
2022-11-30T06:14:55.998Z,100179.91
2022-11-30T06:17:23.220Z,100187.62
2022-11-30T06:19:50.728Z,100201.97
2022-11-30T06:22:17.944Z,100198.75
2022-11-30T06:24:45.710Z,100198.66
2022-11-30T06:27:13.444Z,100187.88
2022-11-30T06:29:40.615Z,100191.72
2022-11-30T06:32:07.965Z,100201.78
2022-11-30T06:34:35.463Z,100196.22
2022-11-30T06:37:02.784Z,100207.75
2022-11-30T06:39:57.851Z,100208.97
2022-11-30T06:42:19.671Z,100213.69
2022-11-30T06:44:47.153Z,100214.94
2022-11-30T06:47:14.471Z,100208.16
2022-11-30T06:49:42.024Z,100212.34
2022-11-30T06:52:09.322Z,100208.84
2022-11-30T06:54:36.547Z,100211.66
2022-11-30T06:57:04.051Z,100207.69
2022-11-30T06:59:31.266Z,100214.72
2022-11-30T07:02:01.668Z,100211.03
2022-11-30T07:04:33.612Z,100209.50
2022-11-30T07:07:00.903Z,100211.56
2022-11-30T07:09:28.149Z,100211.28
2022-11-30T07:11:55.624Z,100211.50
2022-11-30T07:14:22.801Z,100215.22
2022-11-30T07:16:50.076Z,100210.19
2022-11-30T07:19:17.805Z,100208.94
2022-11-30T07:21:45.151Z,100205.81
2022-11-30T07:24:31.074Z,100198.44
2022-11-30T07:27:01.998Z,100196.50
2022-11-30T07:29:29.520Z,100203.06
2022-11-30T07:31:56.818Z,100201.56
2022-11-30T07:34:24.400Z,100204.00
2022-11-30T07:36:51.714Z,100210.66
2022-11-30T07:39:19.029Z,100203.13
2022-11-30T07:41:46.600Z,100205.69
2022-11-30T07:44:13.854Z,100209.78
2022-11-30T07:46:41.020Z,100206.09
2022-11-30T07:49:09.244Z,100204.75
2022-11-30T07:51:36.571Z,100202.94
2022-11-30T07:54:03.910Z,100208.34
2022-11-30T07:56:31.387Z,100212.44
2022-11-30T07:58:59.418Z,100207.53
2022-11-30T08:01:31.146Z,100200.22
2022-11-30T08:03:58.869Z,100209.03
2022-11-30T08:06:26.934Z,100205.22
2022-11-30T08:08:54.523Z,100205.22
2022-11-30T08:11:23.311Z,100204.31
2022-11-30T08:13:50.601Z,100211.13
2022-11-30T08:16:18.903Z,100213.59
2022-11-30T08:18:47.584Z,100211.69
2022-11-30T08:21:15.958Z,100205.78
2022-11-30T08:23:44.422Z,100212.31
2022-11-30T08:26:12.885Z,100209.31
2022-11-30T08:28:40.528Z,100205.28
2022-11-30T08:31:09.382Z,100201.72
2022-11-30T08:33:37.172Z,100192.81
2022-11-30T08:36:10.376Z,100192.81
2022-11-30T08:38:37.952Z,100184.97
2022-11-30T08:41:05.509Z,100192.31
2022-11-30T08:43:32.908Z,100180.22
2022-11-30T08:46:02.311Z,100183.63
2022-11-30T08:48:29.548Z,100184.03
2022-11-30T08:51:22.811Z,100188.34
2022-11-30T08:53:51.088Z,100195.75
2022-11-30T08:56:19.383Z,100189.28
2022-11-30T08:58:47.342Z,100192.87
2022-11-30T09:01:18.787Z,100194.28
2022-11-30T09:03:46.528Z,100189.19
2022-11-30T09:06:13.795Z,100198.59
2022-11-30T09:08:41.974Z,100198.78
2022-11-30T09:11:17.053Z,100196.16
2022-11-30T09:13:44.642Z,100197.81
2022-11-30T09:16:11.984Z,100196.41
2022-11-30T09:18:39.488Z,100196.72
2022-11-30T09:21:08.912Z,100195.03
2022-11-30T09:23:36.156Z,100206.78
2022-11-30T09:26:04.614Z,100197.00
2022-11-30T09:28:32.248Z,100194.03
2022-11-30T09:31:03.153Z,100200.72
2022-11-30T09:33:30.515Z,100200.34
2022-11-30T09:36:02.237Z,100205.28
2022-11-30T09:38:29.474Z,100199.53
2022-11-30T09:40:57.910Z,100201.69
2022-11-30T09:43:46.532Z,100196.94
2022-11-30T09:46:13.798Z,100200.72
2022-11-30T09:49:00.925Z,100193.63
2022-11-30T09:51:30.290Z,100195.28
2022-11-30T09:54:02.711Z,100198.19
2022-11-30T09:56:33.869Z,100189.75
2022-11-30T09:59:15.179Z,100193.94
2022-11-30T10:01:46.054Z,100187.25
2022-11-30T10:04:24.186Z,100186.31
2022-11-30T10:07:11.648Z,100187.50
2022-11-30T10:09:39.348Z,100188.06
2022-11-30T10:12:14.805Z,100182.66
2022-11-30T10:14:45.859Z,100188.97
2022-11-30T10:17:18.890Z,100179.31
2022-11-30T10:20:06.400Z,100182.69
2022-11-30T10:22:48.941Z,100171.06
2022-11-30T10:25:22.235Z,100169.03
2022-11-30T10:27:50.968Z,100160.28
2022-11-30T10:30:25.000Z,100157.16
2022-11-30T10:32:56.239Z,100152.31
2022-11-30T10:35:23.734Z,100156.03
2022-11-30T10:37:52.079Z,100147.28
2022-11-30T10:40:21.012Z,100151.94
2022-11-30T10:42:50.743Z,100155.59
2022-11-30T10:45:19.048Z,100158.56
2022-11-30T10:47:47.855Z,100160.00
2022-11-30T10:50:16.289Z,100155.63
2022-11-30T10:52:48.101Z,100165.81
2022-11-30T10:55:18.226Z,100161.97
2022-11-30T10:57:45.700Z,100164.28
2022-11-30T11:00:14.736Z,100151.03
2022-11-30T11:02:43.585Z,100150.94
2022-11-30T11:05:17.172Z,100149.56
2022-11-30T11:07:55.001Z,100144.97
2022-11-30T11:10:28.465Z,100148.22
2022-11-30T11:12:56.065Z,100153.28
2022-11-30T11:15:33.080Z,100154.31
2022-11-30T11:18:12.873Z,100155.69
2022-11-30T11:20:42.668Z,100146.22
2022-11-30T11:23:23.264Z,100156.53
2022-11-30T11:25:53.173Z,100149.03
2022-11-30T11:28:22.163Z,100145.66
2022-11-30T11:30:49.455Z,100148.78
2022-11-30T11:33:21.633Z,100155.03
2022-11-30T11:35:51.131Z,100151.81
2022-11-30T11:38:18.317Z,100157.09
2022-11-30T11:40:52.441Z,100151.59
2022-11-30T11:43:20.012Z,100150.72
2022-11-30T11:45:51.093Z,100151.72
2022-11-30T11:48:29.276Z,100157.00
2022-11-30T11:51:08.690Z,100153.72
2022-11-30T11:53:53.908Z,100153.94
2022-11-30T11:56:24.768Z,100159.53
2022-11-30T11:59:02.851Z,100151.56
2022-11-30T12:01:50.893Z,100147.81
2022-11-30T12:04:37.565Z,100139.88
2022-11-30T12:07:10.559Z,100132.72
2022-11-30T12:09:41.186Z,100130.03
2022-11-30T12:12:11.239Z,100132.00
2022-11-30T12:14:38.448Z,100135.03
2022-11-30T12:17:18.637Z,100139.56
2022-11-30T12:19:49.122Z,100129.41
2022-11-30T12:22:23.327Z,100131.28
2022-11-30T12:25:11.652Z,100130.62
2022-11-30T12:27:58.000Z,100124.00
2022-11-30T12:30:26.885Z,100113.41
2022-11-30T12:33:26.859Z,100114.34
2022-11-30T12:36:12.712Z,100110.72
2022-11-30T12:38:46.643Z,100124.84
2022-11-30T12:41:32.811Z,100120.28
2022-11-30T12:44:18.087Z,100123.41
2022-11-30T12:46:45.508Z,100126.47
2022-11-30T12:49:21.374Z,100119.28
2022-11-30T12:52:01.403Z,100121.91
2022-11-30T12:54:41.433Z,100119.78
2022-11-30T12:57:13.575Z,100114.78
2022-11-30T12:59:47.388Z,100108.53
2022-11-30T13:02:35.955Z,100111.72
2022-11-30T13:05:06.511Z,100112.63
2022-11-30T13:07:35.052Z,100113.88
2022-11-30T13:10:04.343Z,100112.47
2022-11-30T13:12:36.354Z,100115.09
2022-11-30T13:15:15.322Z,100110.69
2022-11-30T13:17:43.870Z,100103.53
2022-11-30T13:20:20.849Z,100118.28
2022-11-30T13:23:07.446Z,100115.16
2022-11-30T13:26:06.965Z,100119.13
2022-11-30T13:28:41.031Z,100118.28
2022-11-30T13:31:27.265Z,100123.78
2022-11-30T13:33:54.796Z,100120.97
2022-11-30T13:36:23.178Z,100122.69
2022-11-30T13:39:09.723Z,100127.75
2022-11-30T13:41:37.243Z,100124.25
2022-11-30T13:44:04.486Z,100134.69
2022-11-30T13:46:31.940Z,100125.06
2022-11-30T13:49:28.905Z,100125.66
2022-11-30T13:52:21.444Z,100128.97
2022-11-30T13:54:47.790Z,100124.13
2022-11-30T13:57:19.613Z,100126.75
2022-11-30T13:59:54.014Z,100132.19
2022-11-30T14:05:18.555Z,100133.09
2022-11-30T14:07:45.870Z,100126.97
2022-11-30T14:10:36.311Z,100135.81
2022-11-30T14:13:10.263Z,100124.94
2022-11-30T14:15:43.592Z,100131.47
2022-11-30T14:18:11.112Z,100127.91
2022-11-30T14:20:38.391Z,100127.38
2022-11-30T14:23:06.474Z,100128.13
2022-11-30T14:25:34.099Z,100121.47
2022-11-30T14:28:01.307Z,100127.47
2022-11-30T14:30:28.463Z,100134.66
2022-11-30T14:32:57.400Z,100122.75
2022-11-30T14:35:24.636Z,100122.44
2022-11-30T14:37:56.002Z,100127.19
2022-11-30T14:40:24.929Z,100122.78
2022-11-30T14:43:01.849Z,100133.03
2022-11-30T14:45:30.782Z,100123.81
2022-11-30T14:48:05.172Z,100117.94
2022-11-30T14:50:32.806Z,100125.81
2022-11-30T14:53:06.153Z,100122.06
2022-11-30T14:55:45.907Z,100119.38
2022-11-30T14:58:19.363Z,100118.63
2022-11-30T15:00:46.998Z,100117.25
2022-11-30T15:03:18.998Z,100107.53
2022-11-30T15:05:46.508Z,100113.44
2022-11-30T15:08:14.116Z,100116.94
2022-11-30T15:10:41.507Z,100120.59
2022-11-30T15:13:11.100Z,100124.19
2022-11-30T15:15:41.766Z,100122.59
2022-11-30T15:18:16.522Z,100131.63
2022-11-30T15:20:44.734Z,100133.06
2022-11-30T15:23:12.903Z,100141.28
2022-11-30T15:25:40.770Z,100138.84
2022-11-30T15:28:09.403Z,100123.69
2022-11-30T15:30:37.493Z,100127.38
2022-11-30T15:33:04.730Z,100121.28
2022-11-30T15:35:57.047Z,100124.72
2022-11-30T15:38:26.352Z,100121.47
2022-11-30T15:41:03.153Z,100123.88
2022-11-30T15:43:35.381Z,100119.22
2022-11-30T15:46:02.731Z,100122.84
2022-11-30T15:48:34.740Z,100116.03
2022-11-30T15:51:02.434Z,100122.56
2022-11-30T15:53:33.706Z,100112.84
2022-11-30T15:56:05.389Z,100118.66
2022-11-30T15:58:34.182Z,100127.56
2022-11-30T16:01:05.585Z,100128.13
2022-11-30T16:03:33.932Z,100127.91
2022-11-30T16:06:04.774Z,100118.28
2022-11-30T16:08:32.304Z,100118.81
2022-11-30T16:11:04.579Z,100119.75
2022-11-30T16:13:34.745Z,100118.41
2022-11-30T16:16:02.414Z,100112.38
2022-11-30T16:18:29.730Z,100113.53
2022-11-30T16:21:00.814Z,100109.59
2022-11-30T16:23:28.679Z,100107.75
2022-11-30T16:25:56.190Z,100104.97
2022-11-30T16:28:23.415Z,100107.78
2022-11-30T16:30:51.103Z,100101.53
2022-11-30T16:33:19.770Z,100101.78
2022-11-30T16:36:04.499Z,100105.69
2022-11-30T16:38:32.250Z,100111.53
2022-11-30T16:41:13.710Z,100115.88
2022-11-30T16:43:41.772Z,100112.13
2022-11-30T16:46:12.729Z,100120.47
2022-11-30T16:48:40.093Z,100116.06
2022-11-30T16:51:30.785Z,100116.34
2022-11-30T16:53:58.516Z,100109.13
2022-11-30T16:56:25.999Z,100116.97
2022-11-30T16:58:53.231Z,100126.75
2022-11-30T17:01:39.348Z,100129.47
2022-11-30T17:04:11.945Z,100119.66
2022-11-30T17:06:39.165Z,100123.94
2022-11-30T17:09:09.773Z,100121.38
2022-11-30T17:11:37.185Z,100123.78
2022-11-30T17:14:04.488Z,100119.41
2022-11-30T17:16:32.285Z,100112.59
2022-11-30T17:18:59.504Z,100113.31
2022-11-30T17:21:30.820Z,100116.66
2022-11-30T17:23:58.628Z,100110.53
2022-11-30T17:26:26.396Z,100116.84
2022-11-30T17:28:53.654Z,100123.06
2022-11-30T17:31:21.396Z,100123.91
2022-11-30T17:33:48.900Z,100129.28
2022-11-30T17:36:16.506Z,100126.34
2022-11-30T17:38:45.253Z,100123.91
2022-11-30T17:41:18.606Z,100131.28
2022-11-30T17:43:47.478Z,100135.44
2022-11-30T17:46:16.004Z,100133.75
2022-11-30T17:48:43.771Z,100138.38
2022-11-30T17:51:11.817Z,100137.03
2022-11-30T17:53:39.803Z,100135.84
2022-11-30T17:56:11.258Z,100138.28
2022-11-30T17:58:43.473Z,100140.47
2022-11-30T18:01:18.179Z,100139.88
2022-11-30T18:03:46.116Z,100135.50
2022-11-30T18:06:13.692Z,100141.22
2022-11-30T18:08:41.049Z,100139.69
2022-11-30T18:11:10.026Z,100137.50
2022-11-30T18:13:37.686Z,100141.87
2022-11-30T18:16:11.314Z,100134.06
2022-11-30T18:18:42.863Z,100136.16
2022-11-30T18:21:13.780Z,100143.00
2022-11-30T18:23:41.488Z,100137.78
2022-11-30T18:26:11.516Z,100137.88
2022-11-30T18:28:39.112Z,100141.16
2022-11-30T18:31:07.058Z,100141.06
2022-11-30T18:33:34.828Z,100139.31
2022-11-30T18:36:02.929Z,100141.19
2022-11-30T18:38:35.869Z,100148.38
2022-11-30T18:41:05.348Z,100144.63
2022-11-30T18:43:33.955Z,100151.44
2022-11-30T18:46:02.093Z,100144.47
2022-11-30T18:48:29.339Z,100152.78
2022-11-30T18:50:57.088Z,100154.34
2022-11-30T18:53:24.509Z,100152.87
2022-11-30T18:55:51.968Z,100148.00
2022-11-30T18:58:19.505Z,100138.97
2022-11-30T19:00:46.743Z,100148.63
2022-11-30T19:03:14.052Z,100147.94
2022-11-30T19:05:41.872Z,100143.72
2022-11-30T19:08:11.409Z,100151.19
2022-11-30T19:10:39.669Z,100152.56
2022-11-30T19:13:07.608Z,100150.62
2022-11-30T19:15:41.008Z,100150.78
2022-11-30T19:18:09.574Z,100147.84
2022-11-30T19:20:40.550Z,100144.03
2022-11-30T19:23:08.011Z,100153.31
2022-11-30T19:25:35.673Z,100157.56
2022-11-30T19:28:03.007Z,100151.56
2022-11-30T19:30:30.282Z,100151.19
2022-11-30T19:32:57.837Z,100151.97
2022-11-30T19:35:25.217Z,100154.41
2022-11-30T19:37:52.696Z,100152.19
2022-11-30T19:40:20.320Z,100157.53
2022-11-30T19:42:47.792Z,100163.66
2022-11-30T19:45:15.343Z,100157.88
2022-11-30T19:47:43.083Z,100163.81
2022-11-30T19:50:10.742Z,100160.00
2022-11-30T19:52:37.996Z,100163.41
2022-11-30T19:55:06.007Z,100165.84
2022-11-30T19:57:34.974Z,100164.50
2022-11-30T20:00:06.409Z,100167.91
2022-11-30T20:02:40.031Z,100164.75
2022-11-30T20:05:07.893Z,100167.06
2022-11-30T20:07:35.551Z,100167.06
2022-11-30T20:10:03.890Z,100162.56
2022-11-30T20:12:31.600Z,100163.66
2022-11-30T20:14:59.066Z,100149.53
2022-11-30T20:17:26.602Z,100162.69
2022-11-30T20:19:54.315Z,100152.66
2022-11-30T20:22:21.700Z,100155.78
2022-11-30T20:24:50.985Z,100157.72
2022-11-30T20:27:27.754Z,100153.53
2022-11-30T20:29:56.448Z,100152.50
2022-11-30T20:32:24.245Z,100151.25
2022-11-30T20:34:51.729Z,100157.25
2022-11-30T20:37:19.171Z,100159.47
2022-11-30T20:39:46.849Z,100150.44
2022-11-30T20:42:14.361Z,100149.53
2022-11-30T20:44:41.681Z,100157.97
2022-11-30T20:47:09.331Z,100153.25
2022-11-30T20:49:36.646Z,100158.53
2022-11-30T20:52:03.954Z,100154.97
2022-11-30T20:54:31.746Z,100159.78
2022-11-30T20:56:59.279Z,100156.41
2022-11-30T20:59:26.860Z,100153.25
2022-11-30T21:01:55.079Z,100145.28
2022-11-30T21:04:23.410Z,100147.97
2022-11-30T21:06:50.657Z,100145.81
2022-11-30T21:09:18.807Z,100154.03
2022-11-30T21:11:46.676Z,100148.56
2022-11-30T21:14:14.227Z,100149.81
2022-11-30T21:16:41.957Z,100168.16
2022-11-30T21:19:10.751Z,100161.44
2022-11-30T21:21:38.125Z,100164.50
2022-11-30T21:24:06.751Z,100161.81
2022-11-30T21:26:35.007Z,100173.13
2022-11-30T21:29:06.949Z,100175.19
2022-11-30T21:31:34.714Z,100172.16
2022-11-30T21:34:02.000Z,100174.03
2022-11-30T21:36:29.421Z,100181.84
2022-11-30T21:39:04.388Z,100187.84
2022-11-30T21:41:33.077Z,100192.84
2022-11-30T21:44:00.649Z,100204.44
2022-11-30T21:46:27.909Z,100196.25
2022-11-30T21:48:55.205Z,100202.81
2022-11-30T21:51:23.854Z,100207.06
2022-11-30T21:53:52.471Z,100208.66
2022-11-30T21:56:24.236Z,100214.13
2022-11-30T21:58:51.846Z,100213.56
2022-11-30T22:01:23.473Z,100213.28
2022-11-30T22:03:51.065Z,100213.37
2022-11-30T22:06:18.911Z,100219.72
2022-11-30T22:08:46.330Z,100216.91
2022-11-30T22:11:17.961Z,100214.50
2022-11-30T22:13:45.317Z,100219.03
2022-11-30T22:16:13.929Z,100222.56
2022-11-30T22:18:41.637Z,100214.78
2022-11-30T22:21:10.083Z,100207.91
2022-11-30T22:23:38.077Z,100206.66
2022-11-30T22:26:21.677Z,100200.75
2022-11-30T22:28:49.837Z,100201.84
2022-11-30T22:31:18.301Z,100203.78
2022-11-30T22:33:45.549Z,100203.16
2022-11-30T22:36:17.126Z,100201.31
2022-11-30T22:38:44.760Z,100198.78
2022-11-30T22:41:13.121Z,100198.78
2022-11-30T22:43:40.497Z,100195.53
2022-11-30T22:46:09.106Z,100189.41
2022-11-30T22:48:36.440Z,100189.53
2022-11-30T22:51:04.568Z,100186.50
2022-11-30T22:53:32.999Z,100184.09
2022-11-30T22:56:01.146Z,100188.00
2022-11-30T22:58:28.584Z,100186.16
2022-11-30T23:00:56.162Z,100184.06
2022-11-30T23:03:24.637Z,100179.91
2022-11-30T23:05:52.125Z,100180.94
2022-11-30T23:08:19.813Z,100182.16
2022-11-30T23:10:47.185Z,100170.56
2022-11-30T23:13:14.358Z,100165.66
2022-11-30T23:15:41.973Z,100157.53
2022-11-30T23:18:09.942Z,100168.44
2022-11-30T23:20:37.175Z,100166.63
2022-11-30T23:23:04.653Z,100169.69
2022-11-30T23:25:31.967Z,100178.25
2022-11-30T23:27:59.302Z,100177.00
2022-11-30T23:30:27.015Z,100177.19
2022-11-30T23:32:57.264Z,100177.84
2022-11-30T23:35:24.690Z,100166.19
2022-11-30T23:37:52.466Z,100172.03
2022-11-30T23:40:20.082Z,100177.75
2022-11-30T23:42:47.352Z,100183.59
2022-11-30T23:45:17.583Z,100190.72
2022-11-30T23:47:44.756Z,100179.56
2022-11-30T23:50:12.019Z,100186.91
2022-11-30T23:52:39.509Z,100190.53
2022-11-30T23:55:07.151Z,100187.03
2022-11-30T23:57:34.367Z,100194.22
